Terminal Aerodrome Forecast
Issued by NWS

Home | Current Version | Previous Version | Text Only | Print | Product List | Glossary Off
Versions: 1 2 3 4 5 6 7 8 9 10 11 12 13 14 15 16 17 18 19

000
FTUS43 KMPX 151700
TAFRNH
TAF
KRNH 151727Z 1518/1618 28007KT P6SM FEW040 SCT250
     FM152200 20006KT P6SM BKN150
     FM161100 12015G22KT P6SM -SN OVC050
     FM161700 11013G20KT 2SM -RASN BR OVC015=

USA.gov is the U.S. government's official web portal to all federal, state and local government web resources and services.